WetterOnline ( http://www.wetteronline.de )

Wetter aktuell Lage

Aktuelles Wetter: Lügde-Paenbruch (260m)

6-stündlich | Neueste Meldungen
Ortszeit Temperatur Wetter
Mo, 18.06. 2:00 13.8° C bedeckt
So, 17.06. 20:00 17.0° C bedeckt
So, 17.06. 14:00 19.6° C wolkig
So, 17.06. 8:00 15.4° C leicht bewölkt
So, 17.06. 2:00 15.3° C Sprühregen
Sa, 16.06. 20:00 23.2° C wolkig
Sa, 16.06. 14:00 22.0° C wolkig
Sa, 16.06. 8:00 17.4° C wolkig
Ortszeit Temperatur Wetter
Mo, 18.06. 3:30 13.2° C bedeckt
Mo, 18.06. 3:20 13.2° C bedeckt
Mo, 18.06. 3:10 12.9° C bewölkt
Mo, 18.06. 3:00 12.7° C bewölkt
Mo, 18.06. 2:50 12.7° C bewölkt
Mo, 18.06. 2:40 13.2° C bedeckt
Mo, 18.06. 2:30 13.0° C bedeckt
Mo, 18.06. 2:00 13.8° C bedeckt
Mo, 18.06. 1:30 13.6° C bedeckt
Mo, 18.06. 1:00 14.3° C bedeckt
Mo, 18.06. 0:30 14.3° C bewölkt
Ortszeit Relative Feuchte Sichtweite
Mo, 18.06. 2:00 77% 23 km
So, 17.06. 20:00 64% 40 km
So, 17.06. 14:00 56% 35 km
So, 17.06. 8:00 77% 15 km
So, 17.06. 2:00 96% 3.0 km
Sa, 16.06. 20:00 52% 65 km
Sa, 16.06. 14:00 60% 55 km
Sa, 16.06. 8:00 79% 15 km
Ortszeit Relative Feuchte Sichtweite
Mo, 18.06. 3:30 81% 23 km
Mo, 18.06. 3:20 81% -
Mo, 18.06. 3:10 84% -
Mo, 18.06. 3:00 86% 15 km
Mo, 18.06. 2:50 86% -
Mo, 18.06. 2:40 81% -
Mo, 18.06. 2:30 83% 20 km
Mo, 18.06. 2:00 77% 23 km
Mo, 18.06. 1:30 77% 27 km
Mo, 18.06. 1:00 71% 30 km
Mo, 18.06. 0:30 71% 40 km
Ortszeit Niederschlagsmenge Niederschlagsart
Mo, 18.06. 2:00 0.0 l/m2 in 6 Std. -
So, 17.06. 20:00 0.0 l/m2 in 12 Std. -
So, 17.06. 14:00 0.0 l/m2 in 6 Std. -
So, 17.06. 8:00 0.1 l/m2 in 12 Std. Regen
So, 17.06. 2:00 0.1 l/m2 in 6 Std. Regen
Sa, 16.06. 20:00 0.0 l/m2 in 12 Std. -
Sa, 16.06. 14:00 0.0 l/m2 in 6 Std. -
Sa, 16.06. 8:00 0.0 l/m2 in 12 Std. -
Ortszeit Niederschlagsmenge Niederschlagsart
Mo, 18.06. 3:30 0.0 l/m2 in 1 Std. -
Mo, 18.06. 3:20 keine Meldung -
Mo, 18.06. 3:10 keine Meldung -
Mo, 18.06. 3:00 0.0 l/m2 in 1 Std. -
Mo, 18.06. 2:50 keine Meldung -
Mo, 18.06. 2:40 keine Meldung -
Mo, 18.06. 2:30 0.0 l/m2 in 1 Std. -
Mo, 18.06. 2:00 0.0 l/m2 in 1 Std. -
Mo, 18.06. 1:30 0.0 l/m2 in 1 Std. -
Mo, 18.06. 1:00 0.0 l/m2 in 1 Std. -
Mo, 18.06. 0:30 0.0 l/m2 in 1 Std. -
Ortszeit Stärke Spitze Richtung
km/h Bft. km/h Grad Sektor
Mo, 18.06. 2:00 7 2 25 260° W
So, 17.06. 20:00 7 2 40 260° W
So, 17.06. 14:00 19 3 41 240° SW
So, 17.06. 8:00 19 3 26 240° SW
So, 17.06. 2:00 7 2 32 200° S
Sa, 16.06. 20:00 4 1 29 240° SW
Sa, 16.06. 14:00 11 2 30 240° SW
Sa, 16.06. 8:00 4 1 14 150° SO
Ortszeit Stärke Spitze Richtung
km/h Bft. km/h Grad Sektor
Mo, 18.06. 3:30 9 2 11 220° SW
Mo, 18.06. 3:20 9 2 - 220° SW
Mo, 18.06. 3:10 7 2 - 220° SW
Mo, 18.06. 3:00 7 2 19 200° S
Mo, 18.06. 2:50 7 2 - 200° S
Mo, 18.06. 2:40 9 2 - 230° SW
Mo, 18.06. 2:30 7 2 18 170° S
Mo, 18.06. 2:00 7 2 18 260° W
Mo, 18.06. 1:30 13 3 19 240° SW
Mo, 18.06. 1:00 13 3 26 240° SW
Mo, 18.06. 0:30 13 3 26 250° W
Ortszeit Untergrenze Bedeckung Gattung
total tief tief mittel hoch
Mo, 18.06. 2:00 2400 m 8/8 8/8 - - -
So, 17.06. 20:00 3600 m 8/8 8/8 - - -
So, 17.06. 14:00 1290 m 7/8 3/8 - - -
So, 17.06. 8:00 810 m 2/8 - - - -
So, 17.06. 2:00 1800 m 8/8 8/8 - - -
Sa, 16.06. 20:00 2700 m 8/8 3/8 - - -
Sa, 16.06. 14:00 2700 m 7/8 5/8 - - -
Sa, 16.06. 8:00 2700 m 8/8 2/8 - - -
Ortszeit Bedeckungsgrad in Achtel und Wolkenuntergrenze
Mo, 18.06. 3:30 1(1500m) 8(2100m)
Mo, 18.06. 3:20 1(1500m) 8(2100m)
Mo, 18.06. 3:10 2(1500m) 7(2100m)
Mo, 18.06. 3:00 2(1800m) 7(2100m)
Mo, 18.06. 2:50 2(1800m) 7(2100m)
Mo, 18.06. 2:40 4(1800m) 8(2400m)
Mo, 18.06. 2:30 6(1800m) 8(2400m)
Mo, 18.06. 2:00 8(2400m) 8(2400m)
Mo, 18.06. 1:30 8(2400m)
Mo, 18.06. 1:00 8(2700m)
Mo, 18.06. 0:30 7(2700m) 7(7200m)
Ortszeit Luftdruck NN (hPa) Tendenz (hPa in 3 Std.)
Mo, 18.06. 2:00 1020 + 0,8
So, 17.06. 20:00 1018 + 0,6
So, 17.06. 14:00 1017 + 0,3
So, 17.06. 8:00 1016 + 0,9
So, 17.06. 2:00 1015 + 0,9
Sa, 16.06. 20:00 1013 - 0,7
Sa, 16.06. 14:00 1015 - 0,6
Sa, 16.06. 8:00 1016 - 0,2
Ortszeit Luftdruck NN (hPa) Tendenz (hPa in 3 Std.)
Mo, 18.06. 3:30 1020 + 0,5
Mo, 18.06. 3:20 1020 keine Meldung
Mo, 18.06. 3:10 1020 keine Meldung
Mo, 18.06. 3:00 1020 + 0,7
Mo, 18.06. 2:50 1020 keine Meldung
Mo, 18.06. 2:40 1020 keine Meldung
Mo, 18.06. 2:30 1020 + 0,6
Mo, 18.06. 2:00 1020 + 0,8
Mo, 18.06. 1:30 1020 + 1,0
Mo, 18.06. 1:00 1020 + 1,1
Mo, 18.06. 0:30 1020 + 1,0
Ortszeit Schneehöhe (cm)
Mo, 18.06. 2:00 -
So, 17.06. 20:00 -
So, 17.06. 14:00 -
So, 17.06. 8:00 -
So, 17.06. 2:00 -
Sa, 16.06. 20:00 -
Sa, 16.06. 14:00 -
Sa, 16.06. 8:00 -
Ortszeit Schneehöhe (cm)
Mo, 18.06. 3:30 -
Mo, 18.06. 3:20 -
Mo, 18.06. 3:10 -
Mo, 18.06. 3:00 -
Mo, 18.06. 2:50 -
Mo, 18.06. 2:40 -
Mo, 18.06. 2:30 -
Mo, 18.06. 2:00 -
Mo, 18.06. 1:30 -
Mo, 18.06. 1:00 -
Mo, 18.06. 0:30 -
Link zu dieser Seite / Seite empfehlen

Das Wetter in ...